Timber Mountain, Nevada Weather observations

Data are for 10 minute period ending at time listed.
 Day   Time   Solar   Ave.   Ave.  Ave.  Vector  Max.   Baro.   Total    
  of    of     Rad.   Air    Rel.  Wind   Wind   Wind  Press.  Precip.   
Year   Day            Temp.  Hum.  Speed  Dir.   Gust                    
2014   (PST)  Kw/m2    F      %     mph   deg.    mph    mb.     in.     
-------------------------------------------------------------------------
 326    4:00   0.00   35.4    52    1.8    79     4.9   811.6    0.00 
 326    5:00   0.00   35.0    53    1.6   103     4.4   811.4    0.00 
 326    6:00   0.00   36.9    49    3.7   359     8.0   811.2    0.00 
 326    7:00   0.01   40.0    44    3.3     1     9.6   810.9    0.00 
 326    8:00   0.14   45.5    35    4.1   252     9.6   811.3    0.00 
 326    9:00   0.29   49.7    30    6.7   230    15.7   811.2    0.00 
 326   10:00   0.46   51.7    29    6.4   239    16.1   811.3    0.00 
 326   11:00   0.54   51.9    27    8.1   231    19.2   810.4    0.00 
 326   12:00   0.58   52.5    26    7.9   232    18.5   809.5    0.00 
 326   13:00   0.56   52.3    27   10.4   234    20.5   808.7    0.00 
 326   14:00   0.48   53.4    25    6.0   236    18.9   807.9    0.00 
 326   15:00   0.34   52.1    26    5.4   241    16.5   807.9    0.00 
 326   16:00   0.17   50.8    29    4.6   236    11.1   808.0    0.00 
 326   17:00   0.01   44.8    36    2.0     8     6.4   807.8    0.00 
 326   18:00   0.00   40.2    42    2.7   346     6.9   808.0    0.00 
 326   19:00   0.00   37.8    47    2.0    85     5.3   808.4    0.00 
 326   20:00   0.00   39.1    45    4.4   316    15.9   808.9    0.00 
 326   21:00   0.00   42.8    42   12.5   324    27.7   809.9    0.00 
 326   22:00   0.00   39.9    58   15.1   332    31.1   810.5    0.00 
 326   23:00   0.00   38.1    48   15.6   328    30.1   810.8    0.00 
 327    0:00   0.00   36.4    54   13.6   330    27.4   811.1    0.00 
 327    1:00   0.00   35.4    53   14.7   334    32.7   811.7    0.00 
 327    2:00   0.00   34.6    41   17.5   339    37.0   812.3    0.00 
 327    3:00   0.00   33.1    46    7.9   323    22.4   813.0    0.00 

Return to Timber Mountain graphs page.


Western Regional Climate Center,wrcc@dri.edu